sensor_id;sensor_type;location;lat;lon;timestamp;pressure;altitude;pressure_sealevel;temperature;humidity
34586;BME280;20816;50.950;11.108;2023-12-04T00:01:59;98775.59;;;-2.51;94.76
34586;BME280;20816;50.950;11.108;2023-12-04T00:04:26;98775.41;;;-2.58;94.97
34586;BME280;20816;50.950;11.108;2023-12-04T00:06:53;98768.38;;;-2.62;95.70
34586;BME280;20816;50.950;11.108;2023-12-04T00:09:19;98770.78;;;-2.68;96.78
34586;BME280;20816;50.950;11.108;2023-12-04T00:11:46;98758.88;;;-2.64;96.64
34586;BME280;20816;50.950;11.108;2023-12-04T00:14:13;98752.03;;;-2.64;96.46
34586;BME280;20816;50.950;11.108;2023-12-04T00:16:39;98763.16;;;-2.65;96.60
34586;BME280;20816;50.950;11.108;2023-12-04T00:19:06;98763.16;;;-2.65;96.35
34586;BME280;20816;50.950;11.108;2023-12-04T00:21:33;98770.22;;;-2.59;96.50
34586;BME280;20816;50.950;11.108;2023-12-04T00:24:00;98763.16;;;-2.65;96.28
34586;BME280;20816;50.950;11.108;2023-12-04T00:26:26;98760.66;;;-2.62;97.20
34586;BME280;20816;50.950;11.108;2023-12-04T00:28:53;98765.00;;;-2.61;96.65
34586;BME280;20816;50.950;11.108;2023-12-04T00:31:20;98754.59;;;-2.64;96.90
34586;BME280;20816;50.950;11.108;2023-12-04T00:33:46;98756.25;;;-2.66;96.73
34586;BME280;20816;50.950;11.108;2023-12-04T00:36:14;98753.59;;;-2.69;97.04
34586;BME280;20816;50.950;11.108;2023-12-04T00:38:41;98756.25;;;-2.66;97.12
34586;BME280;20816;50.950;11.108;2023-12-04T00:41:07;98750.44;;;-2.60;96.36
34586;BME280;20816;50.950;11.108;2023-12-04T00:43:34;98745.88;;;-2.69;95.87
34586;BME280;20816;50.950;11.108;2023-12-04T00:46:01;98736.63;;;-2.62;94.73
34586;BME280;20816;50.950;11.108;2023-12-04T00:48:28;98738.63;;;-2.54;94.42
34586;BME280;20816;50.950;11.108;2023-12-04T00:50:57;98738.88;;;-2.46;92.50
34586;BME280;20816;50.950;11.108;2023-12-04T00:53:24;98730.41;;;-2.43;91.98
34586;BME280;20816;50.950;11.108;2023-12-04T00:55:50;98748.78;;;-2.31;90.93
34586;BME280;20816;50.950;11.108;2023-12-04T00:58:17;98740.06;;;-2.36;91.44
34586;BME280;20816;50.950;11.108;2023-12-04T01:00:44;98742.56;;;-2.38;91.10
34586;BME280;20816;50.950;11.108;2023-12-04T01:03:10;98732.81;;;-2.48;91.88
34586;BME280;20816;50.950;11.108;2023-12-04T01:05:37;98737.94;;;-2.49;92.70
34586;BME280;20816;50.950;11.108;2023-12-04T01:08:03;98733.66;;;-2.49;92.79
34586;BME280;20816;50.950;11.108;2023-12-04T01:10:30;98721.81;;;-2.44;93.19
34586;BME280;20816;50.950;11.108;2023-12-04T01:12:57;98721.03;;;-2.41;93.51
34586;BME280;20816;50.950;11.108;2023-12-04T01:15:24;98717.25;;;-2.52;93.82
34586;BME280;20816;50.950;11.108;2023-12-04T01:17:51;98704.19;;;-2.59;94.43
34586;BME280;20816;50.950;11.108;2023-12-04T01:20:17;98696.19;;;-2.68;95.34
34586;BME280;20816;50.950;11.108;2023-12-04T01:22:44;98693.50;;;-2.71;95.71
34586;BME280;20816;50.950;11.108;2023-12-04T01:25:10;98686.53;;;-2.75;95.18
34586;BME280;20816;50.950;11.108;2023-12-04T01:27:37;98674.63;;;-2.71;94.28
34586;BME280;20816;50.950;11.108;2023-12-04T01:30:05;98672.41;;;-2.61;92.93
34586;BME280;20816;50.950;11.108;2023-12-04T01:32:34;98664.78;;;-2.58;93.02
34586;BME280;20816;50.950;11.108;2023-12-04T01:35:02;98667.53;;;-2.51;92.84
34586;BME280;20816;50.950;11.108;2023-12-04T01:37:28;98662.66;;;-2.42;92.93
34586;BME280;20816;50.950;11.108;2023-12-04T01:39:55;98649.25;;;-2.32;91.92
34586;BME280;20816;50.950;11.108;2023-12-04T01:42:22;98656.03;;;-2.34;91.90
34586;BME280;20816;50.950;11.108;2023-12-04T01:44:48;98652.66;;;-2.33;91.88
34586;BME280;20816;50.950;11.108;2023-12-04T01:47:15;98641.66;;;-2.28;91.31
34586;BME280;20816;50.950;11.108;2023-12-04T01:49:42;98646.03;;;-2.25;92.09
34586;BME280;20816;50.950;11.108;2023-12-04T01:52:10;98636.66;;;-2.21;91.50
34586;BME280;20816;50.950;11.108;2023-12-04T01:54:36;98632.69;;;-2.12;91.14
34586;BME280;20816;50.950;11.108;2023-12-04T01:57:04;98633.63;;;-2.08;90.73
34586;BME280;20816;50.950;11.108;2023-12-04T01:59:32;98622.47;;;-2.09;90.37
34586;BME280;20816;50.950;11.108;2023-12-04T02:01:59;98614.91;;;-2.03;90.07
34586;BME280;20816;50.950;11.108;2023-12-04T02:04:27;98610.59;;;-2.04;91.07
34586;BME280;20816;50.950;11.108;2023-12-04T02:06:54;98603.78;;;-2.02;91.23
34586;BME280;20816;50.950;11.108;2023-12-04T02:09:21;98610.22;;;-1.86;90.47
34586;BME280;20816;50.950;11.108;2023-12-04T02:11:48;98594.81;;;-1.84;89.92
34586;BME280;20816;50.950;11.108;2023-12-04T02:14:14;98598.50;;;-1.75;89.29
34586;BME280;20816;50.950;11.108;2023-12-04T02:16:42;98590.75;;;-1.76;89.75
34586;BME280;20816;50.950;11.108;2023-12-04T02:19:13;98602.06;;;-1.71;90.17
34586;BME280;20816;50.950;11.108;2023-12-04T02:21:40;98607.44;;;-1.62;89.70
34586;BME280;20816;50.950;11.108;2023-12-04T02:24:07;98608.19;;;-1.66;89.56
34586;BME280;20816;50.950;11.108;2023-12-04T02:26:40;98593.69;;;-1.62;89.72
34586;BME280;20816;50.950;11.108;2023-12-04T02:29:12;98592.44;;;-1.44;88.47
34586;BME280;20816;50.950;11.108;2023-12-04T02:31:41;98595.53;;;-1.57;89.29
34586;BME280;20816;50.950;11.108;2023-12-04T02:34:10;98593.06;;;-1.54;89.16
34586;BME280;20816;50.950;11.108;2023-12-04T02:36:40;98582.88;;;-1.48;89.18
34586;BME280;20816;50.950;11.108;2023-12-04T02:39:08;98582.19;;;-1.41;88.35
34586;BME280;20816;50.950;11.108;2023-12-04T02:41:35;98573.50;;;-1.46;88.79
34586;BME280;20816;50.950;11.108;2023-12-04T02:44:01;98565.63;;;-1.50;88.61
34586;BME280;20816;50.950;11.108;2023-12-04T02:46:28;98569.31;;;-1.41;87.99
34586;BME280;20816;50.950;11.108;2023-12-04T02:48:56;98558.31;;;-1.33;86.94
34586;BME280;20816;50.950;11.108;2023-12-04T02:51:22;98552.41;;;-1.29;86.28
34586;BME280;20816;50.950;11.108;2023-12-04T02:53:52;98550.06;;;-1.20;85.43
34586;BME280;20816;50.950;11.108;2023-12-04T02:56:18;98550.81;;;-1.24;84.75
34586;BME280;20816;50.950;11.108;2023-12-04T02:58:45;98552.41;;;-1.29;85.93
34586;BME280;20816;50.950;11.108;2023-12-04T03:01:12;98555.22;;;-1.20;85.46
34586;BME280;20816;50.950;11.108;2023-12-04T03:03:38;98541.44;;;-1.22;85.80
34586;BME280;20816;50.950;11.108;2023-12-04T03:06:05;98538.97;;;-1.16;86.58
34586;BME280;20816;50.950;11.108;2023-12-04T03:08:32;98539.81;;;-1.17;86.00
34586;BME280;20816;50.950;11.108;2023-12-04T03:11:01;98542.69;;;-1.05;85.16
34586;BME280;20816;50.950;11.108;2023-12-04T03:13:28;98540.94;;;-1.06;84.98
34586;BME280;20816;50.950;11.108;2023-12-04T03:15:54;98534.03;;;-1.07;84.47
34586;BME280;20816;50.950;11.108;2023-12-04T03:18:21;98536.75;;;-1.01;84.49
34586;BME280;20816;50.950;11.108;2023-12-04T03:20:49;98532.56;;;-0.96;84.06
34586;BME280;20816;50.950;11.108;2023-12-04T03:23:16;98524.72;;;-1.00;84.58
34586;BME280;20816;50.950;11.108;2023-12-04T03:25:42;98525.59;;;-1.00;84.23
34586;BME280;20816;50.950;11.108;2023-12-04T03:28:09;98528.81;;;-1.10;85.79
34586;BME280;20816;50.950;11.108;2023-12-04T03:30:36;98521.97;;;-1.08;85.45
34586;BME280;20816;50.950;11.108;2023-12-04T03:33:03;98516.75;;;-1.11;85.46
34586;BME280;20816;50.950;11.108;2023-12-04T03:35:29;98504.75;;;-1.09;85.29
34586;BME280;20816;50.950;11.108;2023-12-04T03:37:56;98513.22;;;-1.15;85.22
34586;BME280;20816;50.950;11.108;2023-12-04T03:40:23;98514.91;;;-1.15;85.10
34586;BME280;20816;50.950;11.108;2023-12-04T03:42:50;98514.91;;;-1.15;85.72
34586;BME280;20816;50.950;11.108;2023-12-04T03:45:17;98504.59;;;-1.15;85.76
34586;BME280;20816;50.950;11.108;2023-12-04T03:47:44;98506.44;;;-1.11;84.30
34586;BME280;20816;50.950;11.108;2023-12-04T03:50:10;98485.81;;;-1.11;84.89
34586;BME280;20816;50.950;11.108;2023-12-04T03:52:37;98490.16;;;-1.08;84.51
34586;BME280;20816;50.950;11.108;2023-12-04T03:55:04;98491.59;;;-1.21;85.55
34586;BME280;20816;50.950;11.108;2023-12-04T03:57:31;98496.75;;;-1.21;85.96
34586;BME280;20816;50.950;11.108;2023-12-04T03:59:58;98486.22;;;-1.30;87.41
34586;BME280;20816;50.950;11.108;2023-12-04T04:02:24;98493.97;;;-1.30;86.92
34586;BME280;20816;50.950;11.108;2023-12-04T04:04:51;98484.47;;;-1.31;88.17
34586;BME280;20816;50.950;11.108;2023-12-04T04:07:18;98483.50;;;-1.36;87.77
34586;BME280;20816;50.950;11.108;2023-12-04T04:09:44;98475.78;;;-1.36;87.51
34586;BME280;20816;50.950;11.108;2023-12-04T04:12:11;98470.44;;;-1.44;87.83
34586;BME280;20816;50.950;11.108;2023-12-04T04:14:38;98467.84;;;-1.46;87.94
34586;BME280;20816;50.950;11.108;2023-12-04T04:17:05;98457.31;;;-1.55;87.85
34586;BME280;20816;50.950;11.108;2023-12-04T04:19:32;98467.75;;;-1.49;86.75
34586;BME280;20816;50.950;11.108;2023-12-04T04:21:58;98461.66;;;-1.52;86.86
34586;BME280;20816;50.950;11.108;2023-12-04T04:24:25;98459.91;;;-1.53;86.71
34586;BME280;20816;50.950;11.108;2023-12-04T04:26:52;98464.22;;;-1.52;86.32
34586;BME280;20816;50.950;11.108;2023-12-04T04:29:18;98463.22;;;-1.59;86.37
34586;BME280;20816;50.950;11.108;2023-12-04T04:31:45;98455.41;;;-1.62;86.55
34586;BME280;20816;50.950;11.108;2023-12-04T04:34:11;98466.56;;;-1.63;86.20
34586;BME280;20816;50.950;11.108;2023-12-04T04:36:38;98455.41;;;-1.62;86.03
34586;BME280;20816;50.950;11.108;2023-12-04T04:39:05;98462.09;;;-1.70;85.85
34586;BME280;20816;50.950;11.108;2023-12-04T04:41:33;98462.22;;;-1.64;85.48
34586;BME280;20816;50.950;11.108;2023-12-04T04:44:00;98467.47;;;-1.61;85.05
34586;BME280;20816;50.950;11.108;2023-12-04T04:46:26;98468.81;;;-1.75;85.42
34586;BME280;20816;50.950;11.108;2023-12-04T04:48:55;98462.09;;;-1.70;85.86
34586;BME280;20816;50.950;11.108;2023-12-04T04:51:22;98467.16;;;-1.73;85.93
34586;BME280;20816;50.950;11.108;2023-12-04T04:53:48;98473.97;;;-1.75;86.01
34586;BME280;20816;50.950;11.108;2023-12-04T04:56:15;98467.97;;;-1.76;86.10
34586;BME280;20816;50.950;11.108;2023-12-04T04:58:42;98475.72;;;-1.74;85.99
34586;BME280;20816;50.950;11.108;2023-12-04T05:01:08;98462.84;;;-1.74;86.18
34586;BME280;20816;50.950;11.108;2023-12-04T05:03:35;98458.69;;;-1.69;85.13
34586;BME280;20816;50.950;11.108;2023-12-04T05:06:02;98450.19;;;-1.65;83.94
34586;BME280;20816;50.950;11.108;2023-12-04T05:08:29;98457.13;;;-1.62;83.76
34586;BME280;20816;50.950;11.108;2023-12-04T05:10:55;98446.69;;;-1.67;84.45
34586;BME280;20816;50.950;11.108;2023-12-04T05:13:22;98441.38;;;-1.73;84.05
34586;BME280;20816;50.950;11.108;2023-12-04T05:15:49;98439.66;;;-1.74;84.46
34586;BME280;20816;50.950;11.108;2023-12-04T05:18:15;98441.81;;;-1.91;85.62
34586;BME280;20816;50.950;11.108;2023-12-04T05:20:42;98440.28;;;-1.84;84.65
34586;BME280;20816;50.950;11.108;2023-12-04T05:23:08;98441.13;;;-1.85;84.52
34586;BME280;20816;50.950;11.108;2023-12-04T05:25:35;98436.03;;;-1.82;84.90
34586;BME280;20816;50.950;11.108;2023-12-04T05:28:10;98439.38;;;-1.86;85.15
34586;BME280;20816;50.950;11.108;2023-12-04T05:30:37;98429.97;;;-1.84;85.01
34586;BME280;20816;50.950;11.108;2023-12-04T05:33:03;98423.91;;;-1.86;84.20
34586;BME280;20816;50.950;11.108;2023-12-04T05:35:30;98421.28;;;-1.88;84.17
34586;BME280;20816;50.950;11.108;2023-12-04T05:38:00;98425.22;;;-2.04;84.58
34586;BME280;20816;50.950;11.108;2023-12-04T05:40:27;98409.81;;;-2.02;85.20
34586;BME280;20816;50.950;11.108;2023-12-04T05:42:53;98415.69;;;-2.06;84.92
34586;BME280;20816;50.950;11.108;2023-12-04T05:45:20;98406.41;;;-2.00;85.02
34586;BME280;20816;50.950;11.108;2023-12-04T05:47:47;98408.00;;;-2.05;85.11
34586;BME280;20816;50.950;11.108;2023-12-04T05:50:14;98406.84;;;-2.17;86.25
34586;BME280;20816;50.950;11.108;2023-12-04T05:52:41;98406.00;;;-2.16;85.98
34586;BME280;20816;50.950;11.108;2023-12-04T05:55:08;98402.72;;;-2.11;86.11
34586;BME280;20816;50.950;11.108;2023-12-04T05:57:34;98396.41;;;-2.22;85.74
34586;BME280;20816;50.950;11.108;2023-12-04T06:00:01;98401.66;;;-2.19;86.42
34586;BME280;20816;50.950;11.108;2023-12-04T06:02:28;98388.09;;;-2.12;85.38
34586;BME280;20816;50.950;11.108;2023-12-04T06:04:56;98383.75;;;-2.13;85.06
34586;BME280;20816;50.950;11.108;2023-12-04T06:07:23;98383.63;;;-2.19;85.36
34586;BME280;20816;50.950;11.108;2023-12-04T06:09:50;98379.41;;;-2.15;85.83
34586;BME280;20816;50.950;11.108;2023-12-04T06:12:16;98381.97;;;-2.17;86.76
34586;BME280;20816;50.950;11.108;2023-12-04T06:14:43;98377.69;;;-2.16;86.23
34586;BME280;20816;50.950;11.108;2023-12-04T06:17:10;98378.78;;;-2.07;84.80
34586;BME280;20816;50.950;11.108;2023-12-04T06:19:36;98378.78;;;-2.07;84.11
34586;BME280;20816;50.950;11.108;2023-12-04T06:22:03;98365.19;;;-2.01;84.70
34586;BME280;20816;50.950;11.108;2023-12-04T06:24:30;98374.84;;;-1.92;84.17
34586;BME280;20816;50.950;11.108;2023-12-04T06:26:57;98373.13;;;-1.92;83.74
34586;BME280;20816;50.950;11.108;2023-12-04T06:29:24;98378.22;;;-1.95;83.53
34586;BME280;20816;50.950;11.108;2023-12-04T06:31:52;98374.16;;;-1.85;83.03
34586;BME280;20816;50.950;11.108;2023-12-04T06:34:19;98376.09;;;-1.75;81.85
34586;BME280;20816;50.950;11.108;2023-12-04T06:36:46;98377.56;;;-1.86;81.95
34586;BME280;20816;50.950;11.108;2023-12-04T06:39:13;98382.09;;;-1.76;82.48
34586;BME280;20816;50.950;11.108;2023-12-04T06:41:42;98386.25;;;-1.81;81.78
34586;BME280;20816;50.950;11.108;2023-12-04T06:44:09;98375.25;;;-1.74;81.79
34586;BME280;20816;50.950;11.108;2023-12-04T06:46:37;98376.78;;;-1.82;81.70
34586;BME280;20816;50.950;11.108;2023-12-04T06:49:05;98390.16;;;-1.97;82.53
34586;BME280;20816;50.950;11.108;2023-12-04T06:51:35;98376.44;;;-1.96;82.84
34586;BME280;20816;50.950;11.108;2023-12-04T06:54:02;98375.66;;;-1.93;82.71
34586;BME280;20816;50.950;11.108;2023-12-04T06:56:29;98373.94;;;-1.94;82.90
34586;BME280;20816;50.950;11.108;2023-12-04T06:58:55;98369.47;;;-2.02;82.76
34586;BME280;20816;50.950;11.108;2023-12-04T07:01:22;98375.47;;;-2.03;83.63
34586;BME280;20816;50.950;11.108;2023-12-04T07:03:49;98378.78;;;-2.07;85.38
34586;BME280;20816;50.950;11.108;2023-12-04T07:06:16;98367.75;;;-2.01;84.32
34586;BME280;20816;50.950;11.108;2023-12-04T07:08:44;98365.53;;;-1.87;83.22
34586;BME280;20816;50.950;11.108;2023-12-04T07:11:11;98367.97;;;-1.92;83.83
34586;BME280;20816;50.950;11.108;2023-12-04T07:13:41;98367.31;;;-1.83;83.46
34586;BME280;20816;50.950;11.108;2023-12-04T07:16:08;98372.81;;;-1.68;81.93
34586;BME280;20816;50.950;11.108;2023-12-04T07:18:35;98366.09;;;-1.61;82.60
34586;BME280;20816;50.950;11.108;2023-12-04T07:21:02;98371.22;;;-1.63;82.50
34586;BME280;20816;50.950;11.108;2023-12-04T07:23:30;98373.84;;;-1.61;83.15
34586;BME280;20816;50.950;11.108;2023-12-04T07:25:57;98365.25;;;-1.62;83.28
34586;BME280;20816;50.950;11.108;2023-12-04T07:28:23;98366.47;;;-1.45;81.55
34586;BME280;20816;50.950;11.108;2023-12-04T07:30:51;98368.44;;;-1.33;80.49
34586;BME280;20816;50.950;11.108;2023-12-04T07:33:17;98361.72;;;-1.26;79.65
34586;BME280;20816;50.950;11.108;2023-12-04T07:35:44;98354.81;;;-1.27;79.57
34586;BME280;20816;50.950;11.108;2023-12-04T07:38:11;98358.41;;;-1.19;78.88
34586;BME280;20816;50.950;11.108;2023-12-04T07:40:37;98352.41;;;-1.20;77.99
34586;BME280;20816;50.950;11.108;2023-12-04T07:43:04;98353.31;;;-1.16;77.93
34586;BME280;20816;50.950;11.108;2023-12-04T07:45:31;98351.66;;;-1.14;78.54
34586;BME280;20816;50.950;11.108;2023-12-04T07:47:57;98353.41;;;-1.13;77.76
34586;BME280;20816;50.950;11.108;2023-12-04T07:50:24;98355.88;;;-1.18;77.92
34586;BME280;20816;50.950;11.108;2023-12-04T07:52:51;98339.69;;;-1.10;77.79
34586;BME280;20816;50.950;11.108;2023-12-04T07:55:18;98347.41;;;-1.12;78.30
34586;BME280;20816;50.950;11.108;2023-12-04T07:57:45;98350.03;;;-1.09;78.23
34586;BME280;20816;50.950;11.108;2023-12-04T08:00:12;98342.28;;;-1.09;77.99
34586;BME280;20816;50.950;11.108;2023-12-04T08:02:39;98341.53;;;-1.05;77.72
34586;BME280;20816;50.950;11.108;2023-12-04T08:05:05;98345.03;;;-1.00;78.41
34586;BME280;20816;50.950;11.108;2023-12-04T08:07:34;98344.47;;;-0.85;77.47
34586;BME280;20816;50.950;11.108;2023-12-04T08:10:01;98342.00;;;-0.80;77.48
34586;BME280;20816;50.950;11.108;2023-12-04T08:12:52;98341.22;;;-0.75;77.06
34586;BME280;20816;50.950;11.108;2023-12-04T08:15:20;98337.94;;;-0.66;76.33
34586;BME280;20816;50.950;11.108;2023-12-04T08:17:47;98335.34;;;-0.66;76.22
34586;BME280;20816;50.950;11.108;2023-12-04T08:20:15;98340.88;;;-0.48;76.80
34586;BME280;20816;50.950;11.108;2023-12-04T08:22:52;98333.97;;;-0.49;76.71
34586;BME280;20816;50.950;11.108;2023-12-04T08:25:21;98347.19;;;-0.31;75.65
34586;BME280;20816;50.950;11.108;2023-12-04T08:27:49;98338.72;;;-0.23;75.24
34586;BME280;20816;50.950;11.108;2023-12-04T08:30:16;98336.19;;;-0.17;74.90
34586;BME280;20816;50.950;11.108;2023-12-04T08:32:43;98332.19;;;0.00;74.77
34586;BME280;20816;50.950;11.108;2023-12-04T08:35:10;98330.44;;;-0.01;73.78
34586;BME280;20816;50.950;11.108;2023-12-04T08:37:37;98327.06;;;0.03;72.73
34586;BME280;20816;50.950;11.108;2023-12-04T08:40:04;98341.72;;;0.04;73.59
34586;BME280;20816;50.950;11.108;2023-12-04T08:42:30;98333.13;;;0.05;73.01
34586;BME280;20816;50.950;11.108;2023-12-04T08:44:57;98329.81;;;0.15;72.81
34586;BME280;20816;50.950;11.108;2023-12-04T08:47:24;98329.09;;;0.24;72.93
34586;BME280;20816;50.950;11.108;2023-12-04T08:49:50;98328.97;;;0.15;73.91
34586;BME280;20816;50.950;11.108;2023-12-04T08:52:17;98326.59;;;0.30;71.78
34586;BME280;20816;50.950;11.108;2023-12-04T08:54:44;98337.13;;;0.44;72.19
34586;BME280;20816;50.950;11.108;2023-12-04T08:57:11;98328.63;;;0.51;70.84
34586;BME280;20816;50.950;11.108;2023-12-04T08:59:37;98321.88;;;0.62;70.47
34586;BME280;20816;50.950;11.108;2023-12-04T09:02:04;98316.59;;;0.56;70.10
34586;BME280;20816;50.950;11.108;2023-12-04T09:04:31;98312.25;;;0.52;70.05
34586;BME280;20816;50.950;11.108;2023-12-04T09:06:59;98309.78;;;0.61;69.94
34586;BME280;20816;50.950;11.108;2023-12-04T09:09:29;98316.81;;;0.71;69.88
34586;BME280;20816;50.950;11.108;2023-12-04T09:11:56;98313.44;;;0.78;69.69
34586;BME280;20816;50.950;11.108;2023-12-04T09:14:23;98308.34;;;0.83;70.16
34586;BME280;20816;50.950;11.108;2023-12-04T09:16:49;98313.63;;;0.91;70.52
34586;BME280;20816;50.950;11.108;2023-12-04T09:19:16;98323.06;;;0.89;70.04
34586;BME280;20816;50.950;11.108;2023-12-04T09:21:44;98312.03;;;1.05;69.71
34586;BME280;20816;50.950;11.108;2023-12-04T09:24:10;98317.19;;;1.02;69.36
34586;BME280;20816;50.950;11.108;2023-12-04T09:26:37;98302.50;;;0.98;69.15
34586;BME280;20816;50.950;11.108;2023-12-04T09:29:04;98309.53;;;1.12;68.44
34586;BME280;20816;50.950;11.108;2023-12-04T09:31:30;98310.25;;;0.98;68.64
34586;BME280;20816;50.950;11.108;2023-12-04T09:33:57;98312.19;;;1.17;68.14
34586;BME280;20816;50.950;11.108;2023-12-04T09:36:24;98308.03;;;1.31;67.46
34586;BME280;20816;50.950;11.108;2023-12-04T09:38:51;98306.22;;;1.26;67.80
34586;BME280;20816;50.950;11.108;2023-12-04T09:41:19;98300.97;;;1.20;67.85
34586;BME280;20816;50.950;11.108;2023-12-04T09:43:49;98301.13;;;1.32;67.64
34586;BME280;20816;50.950;11.108;2023-12-04T09:46:16;98290.88;;;1.44;67.07
34586;BME280;20816;50.950;11.108;2023-12-04T09:48:43;98287.53;;;1.57;66.21
34586;BME280;20816;50.950;11.108;2023-12-04T09:51:11;98274.53;;;1.53;66.79
34586;BME280;20816;50.950;11.108;2023-12-04T09:53:40;98271.88;;;1.44;66.53
34586;BME280;20816;50.950;11.108;2023-12-04T09:56:08;98272.78;;;1.49;67.02
34586;BME280;20816;50.950;11.108;2023-12-04T09:58:39;98267.63;;;1.49;67.67
34586;BME280;20816;50.950;11.108;2023-12-04T10:01:07;98251.16;;;1.40;67.14
34586;BME280;20816;50.950;11.108;2023-12-04T10:03:35;98252.09;;;1.52;67.64
34586;BME280;20816;50.950;11.108;2023-12-04T10:06:02;98243.38;;;1.44;67.05
34586;BME280;20816;50.950;11.108;2023-12-04T10:08:28;98234.03;;;1.62;67.45
34586;BME280;20816;50.950;11.108;2023-12-04T10:10:55;98237.59;;;1.72;67.09
34586;BME280;20816;50.950;11.108;2023-12-04T10:13:22;98226.47;;;1.91;66.86
34586;BME280;20816;50.950;11.108;2023-12-04T10:16:09;98221.44;;;2.13;64.90
34586;BME280;20816;50.950;11.108;2023-12-04T10:18:36;98222.25;;;2.06;66.21
34586;BME280;20816;50.950;11.108;2023-12-04T10:21:03;98216.13;;;1.88;65.53
34586;BME280;20816;50.950;11.108;2023-12-04T10:23:39;98213.41;;;1.72;66.19
34586;BME280;20816;50.950;11.108;2023-12-04T10:26:06;98209.97;;;1.76;66.07
34586;BME280;20816;50.950;11.108;2023-12-04T10:28:37;98205.72;;;1.85;66.01
34586;BME280;20816;50.950;11.108;2023-12-04T10:31:04;98208.34;;;1.93;65.47
34586;BME280;20816;50.950;11.108;2023-12-04T10:33:33;98198.16;;;2.20;66.27
34586;BME280;20816;50.950;11.108;2023-12-04T10:36:00;98190.38;;;2.22;65.33
34586;BME280;20816;50.950;11.108;2023-12-04T10:38:27;98192.06;;;2.14;65.25
34586;BME280;20816;50.950;11.108;2023-12-04T10:40:54;98193.75;;;2.06;64.70
34586;BME280;20816;50.950;11.108;2023-12-04T10:43:23;98184.28;;;2.18;64.62
34586;BME280;20816;50.950;11.108;2023-12-04T10:45:51;98184.38;;;2.32;64.53
34586;BME280;20816;50.950;11.108;2023-12-04T10:48:18;98181.72;;;2.21;64.33
34586;BME280;20816;50.950;11.108;2023-12-04T10:50:47;98185.13;;;2.10;64.46
34586;BME280;20816;50.950;11.108;2023-12-04T10:53:16;98178.28;;;2.22;65.49
34586;BME280;20816;50.950;11.108;2023-12-04T10:55:43;98184.25;;;2.09;65.27
34586;BME280;20816;50.950;11.108;2023-12-04T10:58:15;98181.66;;;2.05;64.78
34586;BME280;20816;50.950;11.108;2023-12-04T11:00:48;98171.16;;;1.80;65.13
34586;BME280;20816;50.950;11.108;2023-12-04T11:03:20;98175.66;;;2.15;65.68
34586;BME280;20816;50.950;11.108;2023-12-04T11:05:55;98164.44;;;2.22;65.28
34586;BME280;20816;50.950;11.108;2023-12-04T11:08:22;98168.84;;;2.40;64.65
34586;BME280;20816;50.950;11.108;2023-12-04T11:11:02;98160.13;;;2.24;64.06
34586;BME280;20816;50.950;11.108;2023-12-04T11:13:49;98152.28;;;2.09;64.15
34586;BME280;20816;50.950;11.108;2023-12-04T11:18:57;98150.50;;;2.02;65.54
34586;BME280;20816;50.950;11.108;2023-12-04T11:21:32;98145.34;;;1.97;65.21
34586;BME280;20816;50.950;11.108;2023-12-04T11:23:59;98141.09;;;2.14;64.43
34586;BME280;20816;50.950;11.108;2023-12-04T11:26:26;98145.44;;;2.26;64.84
34586;BME280;20816;50.950;11.108;2023-12-04T11:28:53;98141.16;;;2.31;65.02
34586;BME280;20816;50.950;11.108;2023-12-04T11:31:21;98144.59;;;2.33;64.72
34586;BME280;20816;50.950;11.108;2023-12-04T11:33:48;98127.38;;;2.46;64.58
34586;BME280;20816;50.950;11.108;2023-12-04T11:36:15;98136.88;;;2.51;63.76
34586;BME280;20816;50.950;11.108;2023-12-04T11:38:44;98125.63;;;2.48;64.17
34586;BME280;20816;50.950;11.108;2023-12-04T11:43:50;98126.50;;;2.51;65.94
34586;BME280;20816;50.950;11.108;2023-12-04T11:46:19;98116.16;;;2.61;65.91
34586;BME280;20816;50.950;11.108;2023-12-04T11:48:56;98113.56;;;2.55;64.48
34586;BME280;20816;50.950;11.108;2023-12-04T11:54:09;98102.31;;;2.59;63.89
34586;BME280;20816;50.950;11.108;2023-12-04T11:56:36;98104.00;;;2.50;64.06
34586;BME280;20816;50.950;11.108;2023-12-04T11:59:04;98097.09;;;2.49;64.44
34586;BME280;20816;50.950;11.108;2023-12-04T12:01:36;98094.50;;;2.39;64.86
34586;BME280;20816;50.950;11.108;2023-12-04T12:04:06;98094.47;;;2.36;64.79
34586;BME280;20816;50.950;11.108;2023-12-04T12:06:34;98091.84;;;2.25;64.67
34586;BME280;20816;50.950;11.108;2023-12-04T12:09:02;98091.84;;;2.16;64.84
34586;BME280;20816;50.950;11.108;2023-12-04T12:11:29;98084.88;;;2.09;63.85
34586;BME280;20816;50.950;11.108;2023-12-04T12:13:56;98088.31;;;1.95;64.59
34586;BME280;20816;50.950;11.108;2023-12-04T12:16:23;98079.63;;;1.83;64.46
34586;BME280;20816;50.950;11.108;2023-12-04T12:18:49;98081.38;;;1.91;65.36
34586;BME280;20816;50.950;11.108;2023-12-04T12:21:17;98070.16;;;1.92;65.10
34586;BME280;20816;50.950;11.108;2023-12-04T12:23:45;98073.56;;;1.84;65.41
34586;BME280;20816;50.950;11.108;2023-12-04T12:26:12;98063.22;;;1.84;64.88
34586;BME280;20816;50.950;11.108;2023-12-04T12:28:38;98062.34;;;1.83;66.65
34586;BME280;20816;50.950;11.108;2023-12-04T12:31:06;98060.53;;;1.70;67.09
34586;BME280;20816;50.950;11.108;2023-12-04T12:33:32;98058.88;;;1.81;67.06
34586;BME280;20816;50.950;11.108;2023-12-04T12:36:00;98064.91;;;1.74;68.00
34586;BME280;20816;50.950;11.108;2023-12-04T12:38:30;98055.41;;;1.75;68.85
34586;BME280;20816;50.950;11.108;2023-12-04T12:41:05;98046.78;;;1.80;69.94
34586;BME280;20816;50.950;11.108;2023-12-04T12:43:35;98049.31;;;1.66;70.17
34586;BME280;20816;50.950;11.108;2023-12-04T12:46:02;98051.94;;;1.77;70.76
34586;BME280;20816;50.950;11.108;2023-12-04T12:48:33;98047.59;;;1.67;70.31
34586;BME280;20816;50.950;11.108;2023-12-04T12:51:02;98050.22;;;1.76;70.72
34586;BME280;20816;50.950;11.108;2023-12-04T12:53:34;98039.84;;;1.73;71.40
34586;BME280;20816;50.950;11.108;2023-12-04T12:56:02;98040.72;;;1.78;72.14
34586;BME280;20816;50.950;11.108;2023-12-04T12:58:31;98037.25;;;1.78;72.27
34586;BME280;20816;50.950;11.108;2023-12-04T13:00:57;98028.59;;;1.69;72.80
34586;BME280;20816;50.950;11.108;2023-12-04T13:03:24;98026.00;;;1.65;72.29